sensor_id;sensor_type;location;lat;lon;timestamp;P1;durP1;ratioP1;P2;durP2;ratioP2
17890;SDS011;9071;48.220;14.480;2023-06-14T00:01:42;5.43;;;4.00;;
17890;SDS011;9071;48.220;14.480;2023-06-14T00:06:45;7.93;;;3.93;;
17890;SDS011;9071;48.220;14.480;2023-06-14T00:11:48;5.50;;;3.70;;
17890;SDS011;9071;48.220;14.480;2023-06-14T00:16:52;6.77;;;3.87;;
17890;SDS011;9071;48.220;14.480;2023-06-14T00:21:58;4.30;;;3.23;;
17890;SDS011;9071;48.220;14.480;2023-06-14T00:27:01;4.63;;;3.60;;
17890;SDS011;9071;48.220;14.480;2023-06-14T00:32:04;6.00;;;4.33;;
17890;SDS011;9071;48.220;14.480;2023-06-14T00:37:07;8.70;;;4.00;;
17890;SDS011;9071;48.220;14.480;2023-06-14T00:42:09;5.60;;;3.73;;
17890;SDS011;9071;48.220;14.480;2023-06-14T00:47:13;5.83;;;4.00;;
17890;SDS011;9071;48.220;14.480;2023-06-14T00:52:15;5.83;;;4.23;;
17890;SDS011;9071;48.220;14.480;2023-06-14T00:57:17;5.37;;;4.13;;
17890;SDS011;9071;48.220;14.480;2023-06-14T01:02:22;5.47;;;4.00;;
17890;SDS011;9071;48.220;14.480;2023-06-14T01:07:28;5.97;;;4.30;;
17890;SDS011;9071;48.220;14.480;2023-06-14T01:12:39;5.90;;;3.90;;
17890;SDS011;9071;48.220;14.480;2023-06-14T01:17:50;5.57;;;3.93;;
17890;SDS011;9071;48.220;14.480;2023-06-14T01:22:55;6.90;;;4.20;;
17890;SDS011;9071;48.220;14.480;2023-06-14T01:28:02;7.33;;;4.57;;
17890;SDS011;9071;48.220;14.480;2023-06-14T01:33:10;6.67;;;4.50;;
17890;SDS011;9071;48.220;14.480;2023-06-14T01:38:16;7.60;;;4.53;;
17890;SDS011;9071;48.220;14.480;2023-06-14T01:43:20;5.97;;;4.30;;
17890;SDS011;9071;48.220;14.480;2023-06-14T01:48:23;5.73;;;4.00;;
17890;SDS011;9071;48.220;14.480;2023-06-14T01:53:28;4.93;;;4.40;;
17890;SDS011;9071;48.220;14.480;2023-06-14T01:58:30;7.13;;;4.70;;
17890;SDS011;9071;48.220;14.480;2023-06-14T02:03:33;8.27;;;5.17;;
17890;SDS011;9071;48.220;14.480;2023-06-14T02:08:39;8.83;;;4.10;;
17890;SDS011;9071;48.220;14.480;2023-06-14T02:13:41;6.23;;;4.20;;
17890;SDS011;9071;48.220;14.480;2023-06-14T02:18:43;5.57;;;3.80;;
17890;SDS011;9071;48.220;14.480;2023-06-14T02:23:47;5.40;;;4.17;;
17890;SDS011;9071;48.220;14.480;2023-06-14T02:28:49;7.03;;;4.30;;
17890;SDS011;9071;48.220;14.480;2023-06-14T02:33:51;5.10;;;4.17;;
17890;SDS011;9071;48.220;14.480;2023-06-14T02:38:54;5.70;;;3.70;;
17890;SDS011;9071;48.220;14.480;2023-06-14T02:43:59;5.77;;;4.23;;
17890;SDS011;9071;48.220;14.480;2023-06-14T02:49:01;5.47;;;4.20;;
17890;SDS011;9071;48.220;14.480;2023-06-14T02:54:04;6.17;;;4.10;;
17890;SDS011;9071;48.220;14.480;2023-06-14T02:59:06;5.43;;;4.27;;
17890;SDS011;9071;48.220;14.480;2023-06-14T03:04:09;10.37;;;4.80;;
17890;SDS011;9071;48.220;14.480;2023-06-14T03:09:13;6.27;;;4.30;;
17890;SDS011;9071;48.220;14.480;2023-06-14T03:14:15;7.67;;;5.40;;
17890;SDS011;9071;48.220;14.480;2023-06-14T03:19:18;8.53;;;5.33;;
17890;SDS011;9071;48.220;14.480;2023-06-14T03:24:21;7.83;;;5.20;;
17890;SDS011;9071;48.220;14.480;2023-06-14T03:29:23;7.73;;;5.20;;
17890;SDS011;9071;48.220;14.480;2023-06-14T03:34:25;8.57;;;5.40;;
17890;SDS011;9071;48.220;14.480;2023-06-14T03:39:29;9.10;;;5.03;;
17890;SDS011;9071;48.220;14.480;2023-06-14T03:44:31;6.47;;;5.17;;
17890;SDS011;9071;48.220;14.480;2023-06-14T03:49:33;16.43;;;7.53;;
17890;SDS011;9071;48.220;14.480;2023-06-14T03:54:37;16.13;;;6.47;;
17890;SDS011;9071;48.220;14.480;2023-06-14T03:59:39;9.63;;;5.57;;
17890;SDS011;9071;48.220;14.480;2023-06-14T04:04:41;10.27;;;5.67;;
17890;SDS011;9071;48.220;14.480;2023-06-14T04:09:46;12.63;;;5.70;;
17890;SDS011;9071;48.220;14.480;2023-06-14T04:14:48;7.87;;;5.30;;
17890;SDS011;9071;48.220;14.480;2023-06-14T04:19:51;7.03;;;5.70;;
17890;SDS011;9071;48.220;14.480;2023-06-14T04:24:54;8.83;;;5.13;;
17890;SDS011;9071;48.220;14.480;2023-06-14T04:29:57;7.97;;;5.10;;
17890;SDS011;9071;48.220;14.480;2023-06-14T04:35:02;7.53;;;5.50;;
17890;SDS011;9071;48.220;14.480;2023-06-14T04:40:07;10.50;;;6.10;;
17890;SDS011;9071;48.220;14.480;2023-06-14T04:45:10;8.83;;;5.57;;
17890;SDS011;9071;48.220;14.480;2023-06-14T04:50:13;9.30;;;5.87;;
17890;SDS011;9071;48.220;14.480;2023-06-14T04:55:19;10.30;;;6.73;;
17890;SDS011;9071;48.220;14.480;2023-06-14T05:00:21;14.50;;;6.97;;
17890;SDS011;9071;48.220;14.480;2023-06-14T05:05:24;10.87;;;6.20;;
17890;SDS011;9071;48.220;14.480;2023-06-14T05:10:28;10.03;;;5.40;;
17890;SDS011;9071;48.220;14.480;2023-06-14T05:15:30;12.20;;;6.70;;
17890;SDS011;9071;48.220;14.480;2023-06-14T05:20:32;12.17;;;6.00;;
17890;SDS011;9071;48.220;14.480;2023-06-14T05:25:36;8.88;;;5.75;;
17890;SDS011;9071;48.220;14.480;2023-06-14T05:30:38;7.50;;;5.00;;
17890;SDS011;9071;48.220;14.480;2023-06-14T05:35:40;8.50;;;4.30;;
17890;SDS011;9071;48.220;14.480;2023-06-14T05:40:44;7.32;;;4.82;;
17890;SDS011;9071;48.220;14.480;2023-06-14T05:45:46;7.05;;;4.20;;
17890;SDS011;9071;48.220;14.480;2023-06-14T05:50:48;6.18;;;4.80;;
17890;SDS011;9071;48.220;14.480;2023-06-14T05:55:52;7.40;;;4.47;;
17890;SDS011;9071;48.220;14.480;2023-06-14T06:00:55;6.72;;;4.53;;
17890;SDS011;9071;48.220;14.480;2023-06-14T06:05:57;7.43;;;4.55;;
17890;SDS011;9071;48.220;14.480;2023-06-14T06:11:04;5.50;;;4.22;;
17890;SDS011;9071;48.220;14.480;2023-06-14T06:16:06;8.73;;;4.10;;
17890;SDS011;9071;48.220;14.480;2023-06-14T06:21:09;8.23;;;3.97;;
17890;SDS011;9071;48.220;14.480;2023-06-14T06:26:12;11.10;;;4.75;;
17890;SDS011;9071;48.220;14.480;2023-06-14T06:31:14;8.52;;;4.72;;
17890;SDS011;9071;48.220;14.480;2023-06-14T06:36:16;17.70;;;5.28;;
17890;SDS011;9071;48.220;14.480;2023-06-14T06:41:20;16.02;;;4.55;;
17890;SDS011;9071;48.220;14.480;2023-06-14T06:46:22;9.60;;;4.75;;
17890;SDS011;9071;48.220;14.480;2023-06-14T06:51:24;10.57;;;4.38;;
17890;SDS011;9071;48.220;14.480;2023-06-14T06:56:27;11.35;;;4.70;;
17890;SDS011;9071;48.220;14.480;2023-06-14T07:01:29;11.50;;;4.82;;
17890;SDS011;9071;48.220;14.480;2023-06-14T07:06:33;7.93;;;5.00;;
17890;SDS011;9071;48.220;14.480;2023-06-14T07:11:37;11.80;;;4.88;;
17890;SDS011;9071;48.220;14.480;2023-06-14T07:16:39;6.78;;;4.18;;
17890;SDS011;9071;48.220;14.480;2023-06-14T07:21:43;8.55;;;4.30;;
17890;SDS011;9071;48.220;14.480;2023-06-14T07:26:46;7.15;;;3.75;;
17890;SDS011;9071;48.220;14.480;2023-06-14T07:31:49;5.07;;;4.20;;
17890;SDS011;9071;48.220;14.480;2023-06-14T07:36:51;7.85;;;3.92;;
17890;SDS011;9071;48.220;14.480;2023-06-14T07:41:55;7.90;;;4.30;;
17890;SDS011;9071;48.220;14.480;2023-06-14T07:46:57;6.28;;;4.10;;
17890;SDS011;9071;48.220;14.480;2023-06-14T07:52:00;6.13;;;3.80;;
17890;SDS011;9071;48.220;14.480;2023-06-14T07:57:03;5.07;;;4.30;;
17890;SDS011;9071;48.220;14.480;2023-06-14T08:02:06;6.15;;;4.10;;
17890;SDS011;9071;48.220;14.480;2023-06-14T08:07:08;5.32;;;3.88;;
17890;SDS011;9071;48.220;14.480;2023-06-14T08:12:12;8.50;;;4.60;;
17890;SDS011;9071;48.220;14.480;2023-06-14T08:17:14;6.00;;;4.57;;
17890;SDS011;9071;48.220;14.480;2023-06-14T08:22:16;5.85;;;4.18;;
17890;SDS011;9071;48.220;14.480;2023-06-14T08:27:19;9.27;;;4.53;;
17890;SDS011;9071;48.220;14.480;2023-06-14T08:32:22;5.95;;;4.25;;
17890;SDS011;9071;48.220;14.480;2023-06-14T08:37:25;5.68;;;4.47;;
17890;SDS011;9071;48.220;14.480;2023-06-14T08:42:29;10.70;;;4.10;;
17890;SDS011;9071;48.220;14.480;2023-06-14T08:47:32;8.35;;;4.75;;
17890;SDS011;9071;48.220;14.480;2023-06-14T08:52:37;6.60;;;4.43;;
17890;SDS011;9071;48.220;14.480;2023-06-14T08:57:47;6.75;;;4.18;;
17890;SDS011;9071;48.220;14.480;2023-06-14T09:02:50;6.05;;;4.45;;
17890;SDS011;9071;48.220;14.480;2023-06-14T09:07:57;7.03;;;3.92;;
17890;SDS011;9071;48.220;14.480;2023-06-14T09:13:02;7.80;;;4.45;;
17890;SDS011;9071;48.220;14.480;2023-06-14T09:18:04;4.85;;;4.07;;
17890;SDS011;9071;48.220;14.480;2023-06-14T09:23:07;8.85;;;4.20;;
17890;SDS011;9071;48.220;14.480;2023-06-14T09:28:10;7.85;;;3.90;;
17890;SDS011;9071;48.220;14.480;2023-06-14T09:33:16;7.38;;;3.90;;
17890;SDS011;9071;48.220;14.480;2023-06-14T09:38:18;6.82;;;4.13;;
17890;SDS011;9071;48.220;14.480;2023-06-14T09:43:22;6.40;;;4.00;;
17890;SDS011;9071;48.220;14.480;2023-06-14T09:48:26;6.07;;;3.55;;
17890;SDS011;9071;48.220;14.480;2023-06-14T09:53:30;13.20;;;3.83;;
17890;SDS011;9071;48.220;14.480;2023-06-14T09:58:35;6.25;;;3.40;;
17890;SDS011;9071;48.220;14.480;2023-06-14T10:03:40;5.18;;;3.10;;
17890;SDS011;9071;48.220;14.480;2023-06-14T10:08:44;5.63;;;3.30;;
17890;SDS011;9071;48.220;14.480;2023-06-14T10:13:48;4.63;;;3.42;;
17890;SDS011;9071;48.220;14.480;2023-06-14T10:18:53;6.22;;;3.13;;
17890;SDS011;9071;48.220;14.480;2023-06-14T10:24:05;4.40;;;3.05;;
17890;SDS011;9071;48.220;14.480;2023-06-14T10:29:12;3.92;;;3.30;;
17890;SDS011;9071;48.220;14.480;2023-06-14T10:34:21;8.35;;;3.30;;
17890;SDS011;9071;48.220;14.480;2023-06-14T10:39:25;5.15;;;3.55;;
17890;SDS011;9071;48.220;14.480;2023-06-14T10:44:41;5.22;;;3.15;;
17890;SDS011;9071;48.220;14.480;2023-06-14T10:49:45;4.97;;;3.30;;
17890;SDS011;9071;48.220;14.480;2023-06-14T10:55:04;5.82;;;3.60;;
17890;SDS011;9071;48.220;14.480;2023-06-14T11:00:16;3.60;;;3.10;;
17890;SDS011;9071;48.220;14.480;2023-06-14T11:05:23;5.80;;;3.40;;
17890;SDS011;9071;48.220;14.480;2023-06-14T11:10:31;7.93;;;2.80;;
17890;SDS011;9071;48.220;14.480;2023-06-14T11:15:43;5.85;;;3.10;;
17890;SDS011;9071;48.220;14.480;2023-06-14T11:20:47;6.28;;;2.92;;
17890;SDS011;9071;48.220;14.480;2023-06-14T11:25:52;6.88;;;3.25;;
17890;SDS011;9071;48.220;14.480;2023-06-14T11:31:00;4.90;;;2.97;;
17890;SDS011;9071;48.220;14.480;2023-06-14T11:36:03;5.90;;;2.88;;
17890;SDS011;9071;48.220;14.480;2023-06-14T11:41:08;4.18;;;3.20;;
17890;SDS011;9071;48.220;14.480;2023-06-14T11:46:15;5.65;;;3.15;;
17890;SDS011;9071;48.220;14.480;2023-06-14T11:51:18;6.63;;;3.17;;
17890;SDS011;9071;48.220;14.480;2023-06-14T11:56:20;4.85;;;3.30;;
17890;SDS011;9071;48.220;14.480;2023-06-14T12:01:24;5.53;;;3.10;;
17890;SDS011;9071;48.220;14.480;2023-06-14T12:06:27;6.78;;;3.10;;
17890;SDS011;9071;48.220;14.480;2023-06-14T12:11:33;6.28;;;2.90;;
17890;SDS011;9071;48.220;14.480;2023-06-14T12:16:38;3.55;;;2.78;;
17890;SDS011;9071;48.220;14.480;2023-06-14T12:21:42;7.68;;;3.28;;
17890;SDS011;9071;48.220;14.480;2023-06-14T12:26:47;5.53;;;2.97;;
17890;SDS011;9071;48.220;14.480;2023-06-14T12:31:50;4.88;;;3.03;;
17890;SDS011;9071;48.220;14.480;2023-06-14T12:36:54;3.88;;;3.05;;
17890;SDS011;9071;48.220;14.480;2023-06-14T12:41:56;4.15;;;2.80;;
17890;SDS011;9071;48.220;14.480;2023-06-14T12:47:00;4.45;;;3.10;;
17890;SDS011;9071;48.220;14.480;2023-06-14T12:52:02;6.38;;;2.97;;
17890;SDS011;9071;48.220;14.480;2023-06-14T12:57:04;4.35;;;2.60;;
17890;SDS011;9071;48.220;14.480;2023-06-14T13:02:12;4.85;;;3.05;;
17890;SDS011;9071;48.220;14.480;2023-06-14T13:07:14;4.07;;;2.85;;
17890;SDS011;9071;48.220;14.480;2023-06-14T13:12:17;3.65;;;3.00;;
17890;SDS011;9071;48.220;14.480;2023-06-14T13:17:20;5.32;;;2.80;;
17890;SDS011;9071;48.220;14.480;2023-06-14T13:22:22;5.88;;;3.25;;
17890;SDS011;9071;48.220;14.480;2023-06-14T13:27:25;5.43;;;3.00;;
17890;SDS011;9071;48.220;14.480;2023-06-14T13:32:28;3.80;;;2.88;;
17890;SDS011;9071;48.220;14.480;2023-06-14T13:37:30;5.68;;;2.92;;
17890;SDS011;9071;48.220;14.480;2023-06-14T13:42:32;6.28;;;3.30;;
17890;SDS011;9071;48.220;14.480;2023-06-14T13:47:37;3.80;;;2.50;;
17890;SDS011;9071;48.220;14.480;2023-06-14T13:52:39;6.38;;;3.03;;
17890;SDS011;9071;48.220;14.480;2023-06-14T13:57:41;3.80;;;2.95;;
17890;SDS011;9071;48.220;14.480;2023-06-14T14:02:44;6.25;;;3.20;;
17890;SDS011;9071;48.220;14.480;2023-06-14T14:07:46;6.00;;;2.90;;
17890;SDS011;9071;48.220;14.480;2023-06-14T14:12:49;3.83;;;3.10;;
17890;SDS011;9071;48.220;14.480;2023-06-14T14:17:52;4.32;;;3.05;;
17890;SDS011;9071;48.220;14.480;2023-06-14T14:22:54;6.88;;;2.90;;
17890;SDS011;9071;48.220;14.480;2023-06-14T14:27:57;5.15;;;3.15;;
17890;SDS011;9071;48.220;14.480;2023-06-14T14:33:00;3.80;;;3.00;;
17890;SDS011;9071;48.220;14.480;2023-06-14T14:38:02;4.82;;;3.03;;
17890;SDS011;9071;48.220;14.480;2023-06-14T14:43:05;5.72;;;3.00;;
17890;SDS011;9071;48.220;14.480;2023-06-14T14:48:08;4.53;;;2.97;;
17890;SDS011;9071;48.220;14.480;2023-06-14T14:53:10;4.60;;;2.95;;
17890;SDS011;9071;48.220;14.480;2023-06-14T14:58:13;3.20;;;2.90;;
17890;SDS011;9071;48.220;14.480;2023-06-14T15:03:19;5.88;;;3.03;;
17890;SDS011;9071;48.220;14.480;2023-06-14T15:08:21;4.50;;;3.03;;
17890;SDS011;9071;48.220;14.480;2023-06-14T15:13:23;4.35;;;3.10;;
17890;SDS011;9071;48.220;14.480;2023-06-14T15:18:26;4.85;;;3.13;;
17890;SDS011;9071;48.220;14.480;2023-06-14T15:23:28;3.47;;;2.90;;
17890;SDS011;9071;48.220;14.480;2023-06-14T15:28:31;6.22;;;3.17;;
17890;SDS011;9071;48.220;14.480;2023-06-14T15:33:34;6.15;;;3.00;;
17890;SDS011;9071;48.220;14.480;2023-06-14T15:38:36;3.65;;;3.05;;
17890;SDS011;9071;48.220;14.480;2023-06-14T15:43:38;5.18;;;3.08;;
17890;SDS011;9071;48.220;14.480;2023-06-14T15:48:42;2.85;;;2.60;;
17890;SDS011;9071;48.220;14.480;2023-06-14T15:53:44;3.63;;;3.03;;
17890;SDS011;9071;48.220;14.480;2023-06-14T15:58:46;5.57;;;3.20;;
17890;SDS011;9071;48.220;14.480;2023-06-14T16:03:51;4.53;;;2.85;;
17890;SDS011;9071;48.220;14.480;2023-06-14T16:08:53;4.93;;;2.70;;
17890;SDS011;9071;48.220;14.480;2023-06-14T16:13:55;4.95;;;3.38;;
17890;SDS011;9071;48.220;14.480;2023-06-14T16:18:59;4.78;;;3.22;;
17890;SDS011;9071;48.220;14.480;2023-06-14T16:24:01;3.67;;;3.20;;
17890;SDS011;9071;48.220;14.480;2023-06-14T16:29:03;5.50;;;3.05;;
17890;SDS011;9071;48.220;14.480;2023-06-14T16:34:07;3.38;;;2.83;;
17890;SDS011;9071;48.220;14.480;2023-06-14T16:39:11;3.67;;;2.70;;
17890;SDS011;9071;48.220;14.480;2023-06-14T16:44:13;5.65;;;3.05;;
17890;SDS011;9071;48.220;14.480;2023-06-14T16:49:17;3.40;;;2.90;;
17890;SDS011;9071;48.220;14.480;2023-06-14T16:54:19;5.32;;;3.20;;
17890;SDS011;9071;48.220;14.480;2023-06-14T16:59:21;5.20;;;3.35;;
17890;SDS011;9071;48.220;14.480;2023-06-14T17:04:25;6.70;;;4.10;;
17890;SDS011;9071;48.220;14.480;2023-06-14T17:09:27;4.80;;;3.28;;
17890;SDS011;9071;48.220;14.480;2023-06-14T17:14:29;5.35;;;3.40;;
17890;SDS011;9071;48.220;14.480;2023-06-14T17:19:32;3.83;;;2.92;;
17890;SDS011;9071;48.220;14.480;2023-06-14T17:24:34;7.60;;;3.25;;
17890;SDS011;9071;48.220;14.480;2023-06-14T17:29:36;5.10;;;3.28;;
17890;SDS011;9071;48.220;14.480;2023-06-14T17:34:40;3.97;;;3.30;;
17890;SDS011;9071;48.220;14.480;2023-06-14T17:39:42;5.47;;;3.65;;
17890;SDS011;9071;48.220;14.480;2023-06-14T17:44:44;6.38;;;3.45;;
17890;SDS011;9071;48.220;14.480;2023-06-14T17:49:51;5.53;;;3.53;;
17890;SDS011;9071;48.220;14.480;2023-06-14T17:54:54;8.20;;;3.22;;
17890;SDS011;9071;48.220;14.480;2023-06-14T17:59:56;7.18;;;3.40;;
17890;SDS011;9071;48.220;14.480;2023-06-14T18:04:59;6.88;;;3.42;;
17890;SDS011;9071;48.220;14.480;2023-06-14T18:10:01;7.00;;;3.25;;
17890;SDS011;9071;48.220;14.480;2023-06-14T18:15:04;4.22;;;3.17;;
17890;SDS011;9071;48.220;14.480;2023-06-14T18:20:09;4.15;;;3.30;;
17890;SDS011;9071;48.220;14.480;2023-06-14T18:25:12;4.30;;;3.30;;
17890;SDS011;9071;48.220;14.480;2023-06-14T18:30:14;4.90;;;3.50;;
17890;SDS011;9071;48.220;14.480;2023-06-14T18:35:19;4.75;;;3.50;;
17890;SDS011;9071;48.220;14.480;2023-06-14T18:40:21;4.25;;;3.42;;
17890;SDS011;9071;48.220;14.480;2023-06-14T18:45:23;6.00;;;3.00;;
17890;SDS011;9071;48.220;14.480;2023-06-14T18:50:27;3.80;;;3.40;;
17890;SDS011;9071;48.220;14.480;2023-06-14T18:55:29;4.43;;;3.40;;
17890;SDS011;9071;48.220;14.480;2023-06-14T19:00:31;6.00;;;3.80;;
17890;SDS011;9071;48.220;14.480;2023-06-14T19:05:34;4.43;;;3.40;;
17890;SDS011;9071;48.220;14.480;2023-06-14T19:10:36;8.00;;;3.95;;
17890;SDS011;9071;48.220;14.480;2023-06-14T19:15:38;5.10;;;3.70;;
17890;SDS011;9071;48.220;14.480;2023-06-14T19:20:42;6.38;;;3.70;;
17890;SDS011;9071;48.220;14.480;2023-06-14T19:25:44;4.50;;;3.55;;
17890;SDS011;9071;48.220;14.480;2023-06-14T19:30:46;4.63;;;3.60;;
17890;SDS011;9071;48.220;14.480;2023-06-14T19:35:50;7.13;;;3.70;;
17890;SDS011;9071;48.220;14.480;2023-06-14T19:40:52;11.77;;;4.07;;
17890;SDS011;9071;48.220;14.480;2023-06-14T19:45:54;7.18;;;3.90;;
17890;SDS011;9071;48.220;14.480;2023-06-14T19:50:57;4.50;;;3.55;;
17890;SDS011;9071;48.220;14.480;2023-06-14T19:55:59;4.90;;;3.65;;
17890;SDS011;9071;48.220;14.480;2023-06-14T20:01:01;4.78;;;4.13;;
17890;SDS011;9071;48.220;14.480;2023-06-14T20:06:05;6.07;;;4.07;;
17890;SDS011;9071;48.220;14.480;2023-06-14T20:11:07;6.32;;;3.92;;
17890;SDS011;9071;48.220;14.480;2023-06-14T20:16:10;5.47;;;3.63;;
17890;SDS011;9071;48.220;14.480;2023-06-14T20:21:13;6.18;;;4.00;;
17890;SDS011;9071;48.220;14.480;2023-06-14T20:26:15;5.68;;;4.20;;
17890;SDS011;9071;48.220;14.480;2023-06-14T20:31:19;3.88;;;3.47;;
17890;SDS011;9071;48.220;14.480;2023-06-14T20:36:24;21.30;;;4.70;;
17890;SDS011;9071;48.220;14.480;2023-06-14T20:41:30;5.30;;;4.18;;
17890;SDS011;9071;48.220;14.480;2023-06-14T20:46:32;4.22;;;3.70;;
17890;SDS011;9071;48.220;14.480;2023-06-14T20:51:36;4.70;;;3.63;;
17890;SDS011;9071;48.220;14.480;2023-06-14T20:56:39;4.82;;;4.00;;
17890;SDS011;9071;48.220;14.480;2023-06-14T21:01:41;4.32;;;3.88;;
17890;SDS011;9071;48.220;14.480;2023-06-14T21:06:44;7.55;;;4.45;;
17890;SDS011;9071;48.220;14.480;2023-06-14T21:11:46;5.65;;;4.35;;
17890;SDS011;9071;48.220;14.480;2023-06-14T21:16:48;7.57;;;4.20;;
17890;SDS011;9071;48.220;14.480;2023-06-14T21:21:52;6.38;;;4.07;;
17890;SDS011;9071;48.220;14.480;2023-06-14T21:26:55;4.43;;;3.80;;
17890;SDS011;9071;48.220;14.480;2023-06-14T21:31:58;7.68;;;4.00;;
17890;SDS011;9071;48.220;14.480;2023-06-14T21:37:01;5.10;;;4.13;;
17890;SDS011;9071;48.220;14.480;2023-06-14T21:42:05;5.50;;;3.63;;
17890;SDS011;9071;48.220;14.480;2023-06-14T21:47:08;4.65;;;4.15;;
17890;SDS011;9071;48.220;14.480;2023-06-14T21:52:12;6.43;;;4.07;;
17890;SDS011;9071;48.220;14.480;2023-06-14T21:57:14;8.77;;;4.20;;
17890;SDS011;9071;48.220;14.480;2023-06-14T22:02:16;6.78;;;4.40;;
17890;SDS011;9071;48.220;14.480;2023-06-14T22:07:20;7.47;;;4.70;;
17890;SDS011;9071;48.220;14.480;2023-06-14T22:12:22;7.05;;;4.60;;
17890;SDS011;9071;48.220;14.480;2023-06-14T22:17:24;6.65;;;4.90;;
17890;SDS011;9071;48.220;14.480;2023-06-14T22:22:30;7.25;;;4.75;;
17890;SDS011;9071;48.220;14.480;2023-06-14T22:27:38;8.43;;;4.70;;
17890;SDS011;9071;48.220;14.480;2023-06-14T22:32:45;6.78;;;4.93;;
17890;SDS011;9071;48.220;14.480;2023-06-14T22:37:50;5.47;;;4.57;;
17890;SDS011;9071;48.220;14.480;2023-06-14T22:42:52;6.75;;;4.53;;
17890;SDS011;9071;48.220;14.480;2023-06-14T22:47:57;5.93;;;4.30;;
17890;SDS011;9071;48.220;14.480;2023-06-14T22:53:00;6.03;;;4.80;;
17890;SDS011;9071;48.220;14.480;2023-06-14T22:58:02;6.70;;;5.10;;
17890;SDS011;9071;48.220;14.480;2023-06-14T23:03:04;7.80;;;5.50;;
17890;SDS011;9071;48.220;14.480;2023-06-14T23:08:08;8.23;;;5.67;;
17890;SDS011;9071;48.220;14.480;2023-06-14T23:13:10;9.33;;;6.03;;
17890;SDS011;9071;48.220;14.480;2023-06-14T23:18:12;9.33;;;5.77;;
17890;SDS011;9071;48.220;14.480;2023-06-14T23:23:16;9.23;;;6.07;;
17890;SDS011;9071;48.220;14.480;2023-06-14T23:28:20;7.97;;;5.43;;
17890;SDS011;9071;48.220;14.480;2023-06-14T23:33:22;7.67;;;5.70;;
17890;SDS011;9071;48.220;14.480;2023-06-14T23:38:26;8.10;;;6.00;;
17890;SDS011;9071;48.220;14.480;2023-06-14T23:43:29;9.80;;;6.50;;
17890;SDS011;9071;48.220;14.480;2023-06-14T23:48:33;7.63;;;5.57;;
17890;SDS011;9071;48.220;14.480;2023-06-14T23:53:37;10.13;;;7.00;;
17890;SDS011;9071;48.220;14.480;2023-06-14T23:58:39;6.50;;;5.60;;
